sensor_id;sensor_type;location;lat;lon;timestamp;P1;durP1;ratioP1;P2;durP2;ratioP2
26989;SDS011;14537;47.788;11.858;2024-03-23T00:52:47;1.55;;;1.17;;
26989;SDS011;14537;47.788;11.858;2024-03-23T00:55:12;3.08;;;1.52;;
26989;SDS011;14537;47.788;11.858;2024-03-23T00:57:39;3.65;;;1.55;;
26989;SDS011;14537;47.788;11.858;2024-03-23T01:00:04;3.03;;;1.25;;
26989;SDS011;14537;47.788;11.858;2024-03-23T01:02:31;3.47;;;1.55;;
26989;SDS011;14537;47.788;11.858;2024-03-23T01:04:57;2.63;;;1.38;;
26989;SDS011;14537;47.788;11.858;2024-03-23T01:07:23;2.83;;;1.50;;
26989;SDS011;14537;47.788;11.858;2024-03-23T01:09:48;3.38;;;1.15;;
26989;SDS011;14537;47.788;11.858;2024-03-23T01:12:14;1.77;;;1.10;;
26989;SDS011;14537;47.788;11.858;2024-03-23T01:14:39;3.10;;;1.27;;
26989;SDS011;14537;47.788;11.858;2024-03-23T01:17:05;2.30;;;1.35;;
26989;SDS011;14537;47.788;11.858;2024-03-23T01:19:30;1.50;;;1.33;;
26989;SDS011;14537;47.788;11.858;2024-03-23T01:21:56;2.50;;;1.20;;
26989;SDS011;14537;47.788;11.858;2024-03-23T01:24:22;3.00;;;1.52;;
26989;SDS011;14537;47.788;11.858;2024-03-23T01:26:47;4.03;;;1.73;;
26989;SDS011;14537;47.788;11.858;2024-03-23T01:29:13;2.67;;;1.48;;
26989;SDS011;14537;47.788;11.858;2024-03-23T01:31:38;2.45;;;1.63;;
26989;SDS011;14537;47.788;11.858;2024-03-23T01:34:04;3.05;;;1.67;;
26989;SDS011;14537;47.788;11.858;2024-03-23T01:36:29;2.35;;;1.50;;
26989;SDS011;14537;47.788;11.858;2024-03-23T01:38:55;1.90;;;1.48;;
26989;SDS011;14537;47.788;11.858;2024-03-23T01:41:20;4.38;;;1.75;;
26989;SDS011;14537;47.788;11.858;2024-03-23T01:43:46;6.25;;;2.08;;
26989;SDS011;14537;47.788;11.858;2024-03-23T01:46:12;4.47;;;1.70;;
26989;SDS011;14537;47.788;11.858;2024-03-23T01:48:38;2.78;;;1.50;;
26989;SDS011;14537;47.788;11.858;2024-03-23T01:51:04;3.78;;;1.73;;
26989;SDS011;14537;47.788;11.858;2024-03-23T01:53:30;6.45;;;2.13;;
26989;SDS011;14537;47.788;11.858;2024-03-23T01:55:56;6.43;;;2.25;;
26989;SDS011;14537;47.788;11.858;2024-03-23T01:58:22;4.85;;;2.28;;
26989;SDS011;14537;47.788;11.858;2024-03-23T02:00:47;3.10;;;1.77;;
26989;SDS011;14537;47.788;11.858;2024-03-23T02:03:25;5.00;;;1.70;;
26989;SDS011;14537;47.788;11.858;2024-03-23T02:05:52;9.35;;;1.88;;
26989;SDS011;14537;47.788;11.858;2024-03-23T02:08:19;2.97;;;1.85;;
26989;SDS011;14537;47.788;11.858;2024-03-23T02:10:47;2.80;;;1.67;;
26989;SDS011;14537;47.788;11.858;2024-03-23T02:13:14;2.17;;;1.38;;
26989;SDS011;14537;47.788;11.858;2024-03-23T02:15:41;7.50;;;1.95;;
26989;SDS011;14537;47.788;11.858;2024-03-23T02:18:07;2.83;;;1.67;;
26989;SDS011;14537;47.788;11.858;2024-03-23T02:20:34;2.40;;;1.73;;
26989;SDS011;14537;47.788;11.858;2024-03-23T02:23:00;5.82;;;1.48;;
26989;SDS011;14537;47.788;11.858;2024-03-23T02:25:25;4.13;;;1.40;;
26989;SDS011;14537;47.788;11.858;2024-03-23T02:27:51;2.55;;;1.40;;
26989;SDS011;14537;47.788;11.858;2024-03-23T02:30:19;2.00;;;1.27;;
26989;SDS011;14537;47.788;11.858;2024-03-23T02:32:45;3.92;;;1.70;;
26989;SDS011;14537;47.788;11.858;2024-03-23T02:35:10;2.78;;;1.50;;
26989;SDS011;14537;47.788;11.858;2024-03-23T02:37:36;5.55;;;1.52;;
26989;SDS011;14537;47.788;11.858;2024-03-23T02:40:01;3.45;;;1.38;;
26989;SDS011;14537;47.788;11.858;2024-03-23T02:42:27;2.28;;;1.40;;
26989;SDS011;14537;47.788;11.858;2024-03-23T02:44:53;2.58;;;1.70;;
26989;SDS011;14537;47.788;11.858;2024-03-23T02:47:19;2.80;;;1.42;;
26989;SDS011;14537;47.788;11.858;2024-03-23T02:49:45;1.75;;;1.38;;
26989;SDS011;14537;47.788;11.858;2024-03-23T02:52:10;2.33;;;1.45;;
26989;SDS011;14537;47.788;11.858;2024-03-23T02:54:36;8.73;;;1.75;;
26989;SDS011;14537;47.788;11.858;2024-03-23T02:57:02;1.73;;;1.38;;
26989;SDS011;14537;47.788;11.858;2024-03-23T02:59:27;5.43;;;1.75;;
26989;SDS011;14537;47.788;11.858;2024-03-23T03:01:53;2.08;;;1.50;;
26989;SDS011;14537;47.788;11.858;2024-03-23T03:04:18;2.58;;;2.05;;
26989;SDS011;14537;47.788;11.858;2024-03-23T03:06:47;3.42;;;1.25;;
26989;SDS011;14537;47.788;11.858;2024-03-23T03:09:13;2.08;;;1.30;;
26989;SDS011;14537;47.788;11.858;2024-03-23T03:11:39;1.40;;;1.20;;
26989;SDS011;14537;47.788;11.858;2024-03-23T03:14:04;2.75;;;1.50;;
26989;SDS011;14537;47.788;11.858;2024-03-23T03:16:32;1.63;;;1.10;;
26989;SDS011;14537;47.788;11.858;2024-03-23T03:18:58;1.90;;;1.40;;
26989;SDS011;14537;47.788;11.858;2024-03-23T03:21:23;2.78;;;1.55;;
26989;SDS011;14537;47.788;11.858;2024-03-23T03:23:49;2.70;;;1.58;;
26989;SDS011;14537;47.788;11.858;2024-03-23T03:26:15;3.20;;;1.30;;
26989;SDS011;14537;47.788;11.858;2024-03-23T03:28:42;2.05;;;1.15;;
26989;SDS011;14537;47.788;11.858;2024-03-23T03:31:09;1.83;;;1.20;;
26989;SDS011;14537;47.788;11.858;2024-03-23T03:33:34;2.35;;;1.38;;
26989;SDS011;14537;47.788;11.858;2024-03-23T03:36:00;1.70;;;1.30;;
26989;SDS011;14537;47.788;11.858;2024-03-23T03:38:25;5.38;;;1.45;;
26989;SDS011;14537;47.788;11.858;2024-03-23T03:40:51;2.58;;;1.40;;
26989;SDS011;14537;47.788;11.858;2024-03-23T03:43:18;2.63;;;1.52;;
26989;SDS011;14537;47.788;11.858;2024-03-23T03:45:51;2.40;;;1.45;;
26989;SDS011;14537;47.788;11.858;2024-03-23T03:48:17;6.03;;;1.33;;
26989;SDS011;14537;47.788;11.858;2024-03-23T03:50:43;2.10;;;1.33;;
26989;SDS011;14537;47.788;11.858;2024-03-23T03:53:08;1.70;;;1.20;;
26989;SDS011;14537;47.788;11.858;2024-03-23T03:55:34;2.42;;;1.23;;
26989;SDS011;14537;47.788;11.858;2024-03-23T03:57:59;2.80;;;1.10;;
26989;SDS011;14537;47.788;11.858;2024-03-23T04:00:25;5.97;;;1.85;;
26989;SDS011;14537;47.788;11.858;2024-03-23T04:02:51;2.28;;;1.20;;
26989;SDS011;14537;47.788;11.858;2024-03-23T04:05:16;3.03;;;1.58;;
26989;SDS011;14537;47.788;11.858;2024-03-23T04:07:42;2.00;;;1.50;;
26989;SDS011;14537;47.788;11.858;2024-03-23T04:10:08;3.70;;;1.77;;
26989;SDS011;14537;47.788;11.858;2024-03-23T04:12:34;2.35;;;1.30;;
26989;SDS011;14537;47.788;11.858;2024-03-23T04:15:00;2.50;;;1.48;;
26989;SDS011;14537;47.788;11.858;2024-03-23T04:17:28;5.93;;;1.25;;
26989;SDS011;14537;47.788;11.858;2024-03-23T04:19:57;2.50;;;1.80;;
26989;SDS011;14537;47.788;11.858;2024-03-23T04:22:23;1.92;;;1.20;;
26989;SDS011;14537;47.788;11.858;2024-03-23T04:24:52;5.75;;;1.65;;
26989;SDS011;14537;47.788;11.858;2024-03-23T04:27:19;2.35;;;1.67;;
26989;SDS011;14537;47.788;11.858;2024-03-23T04:29:47;5.03;;;1.60;;
26989;SDS011;14537;47.788;11.858;2024-03-23T04:32:16;3.58;;;1.30;;
26989;SDS011;14537;47.788;11.858;2024-03-23T04:34:43;3.72;;;1.33;;
26989;SDS011;14537;47.788;11.858;2024-03-23T04:37:09;2.78;;;1.30;;
26989;SDS011;14537;47.788;11.858;2024-03-23T04:39:38;3.25;;;1.73;;
26989;SDS011;14537;47.788;11.858;2024-03-23T04:42:04;1.77;;;1.23;;
26989;SDS011;14537;47.788;11.858;2024-03-23T04:44:30;4.03;;;1.35;;
26989;SDS011;14537;47.788;11.858;2024-03-23T04:46:56;2.70;;;1.20;;
26989;SDS011;14537;47.788;11.858;2024-03-23T04:49:22;2.00;;;1.40;;
26989;SDS011;14537;47.788;11.858;2024-03-23T04:51:47;4.20;;;1.70;;
26989;SDS011;14537;47.788;11.858;2024-03-23T04:54:13;1.65;;;1.40;;
26989;SDS011;14537;47.788;11.858;2024-03-23T04:56:39;3.40;;;1.50;;
26989;SDS011;14537;47.788;11.858;2024-03-23T04:59:05;3.42;;;1.33;;
26989;SDS011;14537;47.788;11.858;2024-03-23T05:01:31;2.70;;;1.45;;
26989;SDS011;14537;47.788;11.858;2024-03-23T05:03:57;2.20;;;1.33;;
26989;SDS011;14537;47.788;11.858;2024-03-23T05:06:23;3.20;;;1.48;;
26989;SDS011;14537;47.788;11.858;2024-03-23T05:08:49;1.90;;;1.35;;
26989;SDS011;14537;47.788;11.858;2024-03-23T05:11:14;2.25;;;1.27;;
26989;SDS011;14537;47.788;11.858;2024-03-23T05:13:40;2.80;;;1.52;;
26989;SDS011;14537;47.788;11.858;2024-03-23T05:16:06;3.58;;;1.58;;
26989;SDS011;14537;47.788;11.858;2024-03-23T05:18:33;3.42;;;1.50;;
26989;SDS011;14537;47.788;11.858;2024-03-23T05:20:59;2.25;;;1.40;;
26989;SDS011;14537;47.788;11.858;2024-03-23T05:23:25;3.20;;;1.63;;
26989;SDS011;14537;47.788;11.858;2024-03-23T05:25:51;5.20;;;1.40;;
26989;SDS011;14537;47.788;11.858;2024-03-23T05:28:17;3.20;;;1.67;;
26989;SDS011;14537;47.788;11.858;2024-03-23T05:30:43;1.98;;;1.60;;
26989;SDS011;14537;47.788;11.858;2024-03-23T05:33:09;2.47;;;1.30;;
26989;SDS011;14537;47.788;11.858;2024-03-23T05:35:35;2.42;;;1.48;;
26989;SDS011;14537;47.788;11.858;2024-03-23T05:38:00;4.18;;;1.92;;
26989;SDS011;14537;47.788;11.858;2024-03-23T05:40:26;1.92;;;1.50;;
26989;SDS011;14537;47.788;11.858;2024-03-23T05:42:52;8.57;;;1.67;;
26989;SDS011;14537;47.788;11.858;2024-03-23T05:45:18;3.00;;;1.52;;
26989;SDS011;14537;47.788;11.858;2024-03-23T05:47:44;3.08;;;1.50;;
26989;SDS011;14537;47.788;11.858;2024-03-23T05:50:10;4.82;;;2.00;;
26989;SDS011;14537;47.788;11.858;2024-03-23T05:52:37;3.72;;;1.73;;
26989;SDS011;14537;47.788;11.858;2024-03-23T05:55:04;4.15;;;1.83;;
26989;SDS011;14537;47.788;11.858;2024-03-23T05:57:30;2.85;;;1.75;;
26989;SDS011;14537;47.788;11.858;2024-03-23T05:59:56;3.63;;;2.08;;
26989;SDS011;14537;47.788;11.858;2024-03-23T06:02:22;5.32;;;2.45;;
26989;SDS011;14537;47.788;11.858;2024-03-23T06:04:48;4.75;;;2.13;;
26989;SDS011;14537;47.788;11.858;2024-03-23T06:07:13;5.25;;;2.35;;
26989;SDS011;14537;47.788;11.858;2024-03-23T06:09:40;5.88;;;1.80;;
26989;SDS011;14537;47.788;11.858;2024-03-23T06:12:06;6.35;;;2.05;;
26989;SDS011;14537;47.788;11.858;2024-03-23T06:14:32;3.33;;;1.95;;
26989;SDS011;14537;47.788;11.858;2024-03-23T06:16:58;5.68;;;2.42;;
26989;SDS011;14537;47.788;11.858;2024-03-23T06:19:25;3.22;;;1.98;;
26989;SDS011;14537;47.788;11.858;2024-03-23T06:21:54;3.53;;;2.15;;
26989;SDS011;14537;47.788;11.858;2024-03-23T06:24:22;4.72;;;2.38;;
26989;SDS011;14537;47.788;11.858;2024-03-23T06:29:15;4.82;;;2.10;;
26989;SDS011;14537;47.788;11.858;2024-03-23T06:31:40;4.97;;;2.20;;
26989;SDS011;14537;47.788;11.858;2024-03-23T06:34:06;4.47;;;1.98;;
26989;SDS011;14537;47.788;11.858;2024-03-23T06:36:32;4.18;;;1.98;;
26989;SDS011;14537;47.788;11.858;2024-03-23T06:38:57;3.58;;;1.60;;
26989;SDS011;14537;47.788;11.858;2024-03-23T06:41:24;4.68;;;2.40;;
26989;SDS011;14537;47.788;11.858;2024-03-23T06:43:50;6.30;;;2.22;;
26989;SDS011;14537;47.788;11.858;2024-03-23T06:46:15;5.10;;;2.20;;
26989;SDS011;14537;47.788;11.858;2024-03-23T06:48:41;5.78;;;2.72;;
26989;SDS011;14537;47.788;11.858;2024-03-23T06:51:06;4.55;;;2.25;;
26989;SDS011;14537;47.788;11.858;2024-03-23T06:53:32;7.63;;;2.08;;
26989;SDS011;14537;47.788;11.858;2024-03-23T06:55:58;4.35;;;2.20;;
26989;SDS011;14537;47.788;11.858;2024-03-23T06:58:24;6.13;;;2.50;;
26989;SDS011;14537;47.788;11.858;2024-03-23T07:00:50;5.78;;;2.80;;
26989;SDS011;14537;47.788;11.858;2024-03-23T07:03:16;5.25;;;2.67;;
26989;SDS011;14537;47.788;11.858;2024-03-23T07:05:42;3.58;;;2.25;;
26989;SDS011;14537;47.788;11.858;2024-03-23T07:08:07;4.80;;;2.33;;
26989;SDS011;14537;47.788;11.858;2024-03-23T07:10:33;7.75;;;2.50;;
26989;SDS011;14537;47.788;11.858;2024-03-23T07:12:59;4.07;;;2.15;;
26989;SDS011;14537;47.788;11.858;2024-03-23T07:15:24;4.22;;;2.17;;
26989;SDS011;14537;47.788;11.858;2024-03-23T07:17:50;5.13;;;1.58;;
26989;SDS011;14537;47.788;11.858;2024-03-23T07:20:16;2.47;;;1.55;;
26989;SDS011;14537;47.788;11.858;2024-03-23T07:22:41;3.05;;;1.58;;
26989;SDS011;14537;47.788;11.858;2024-03-23T07:25:07;3.53;;;1.40;;
26989;SDS011;14537;47.788;11.858;2024-03-23T07:27:33;3.53;;;1.52;;
26989;SDS011;14537;47.788;11.858;2024-03-23T07:29:59;2.13;;;1.40;;
26989;SDS011;14537;47.788;11.858;2024-03-23T07:32:26;4.50;;;1.33;;
26989;SDS011;14537;47.788;11.858;2024-03-23T07:34:51;4.75;;;1.50;;
26989;SDS011;14537;47.788;11.858;2024-03-23T07:37:18;3.00;;;1.35;;
26989;SDS011;14537;47.788;11.858;2024-03-23T07:39:43;7.68;;;1.63;;
26989;SDS011;14537;47.788;11.858;2024-03-23T07:42:09;2.25;;;1.48;;
26989;SDS011;14537;47.788;11.858;2024-03-23T07:44:34;2.20;;;1.33;;
26989;SDS011;14537;47.788;11.858;2024-03-23T07:47:00;3.10;;;1.35;;
26989;SDS011;14537;47.788;11.858;2024-03-23T07:49:26;2.72;;;1.48;;
26989;SDS011;14537;47.788;11.858;2024-03-23T07:51:52;5.70;;;1.50;;
26989;SDS011;14537;47.788;11.858;2024-03-23T07:54:17;1.20;;;0.82;;
26989;SDS011;14537;47.788;11.858;2024-03-23T07:56:43;1.33;;;1.00;;
26989;SDS011;14537;47.788;11.858;2024-03-23T07:59:09;5.45;;;1.42;;
26989;SDS011;14537;47.788;11.858;2024-03-23T08:01:35;2.75;;;1.58;;
26989;SDS011;14537;47.788;11.858;2024-03-23T08:04:00;3.05;;;1.20;;
26989;SDS011;14537;47.788;11.858;2024-03-23T08:06:26;1.50;;;0.85;;
26989;SDS011;14537;47.788;11.858;2024-03-23T08:08:54;2.53;;;1.00;;
26989;SDS011;14537;47.788;11.858;2024-03-23T08:11:29;1.25;;;0.80;;
26989;SDS011;14537;47.788;11.858;2024-03-23T08:13:56;1.27;;;0.88;;
26989;SDS011;14537;47.788;11.858;2024-03-23T08:16:23;2.13;;;0.90;;
26989;SDS011;14537;47.788;11.858;2024-03-23T08:18:52;2.20;;;0.85;;
26989;SDS011;14537;47.788;11.858;2024-03-23T08:21:18;0.52;;;0.52;;
26989;SDS011;14537;47.788;11.858;2024-03-23T08:23:44;2.08;;;0.70;;
26989;SDS011;14537;47.788;11.858;2024-03-23T08:26:10;2.70;;;0.80;;
26989;SDS011;14537;47.788;11.858;2024-03-23T08:28:37;18.75;;;3.28;;
26989;SDS011;14537;47.788;11.858;2024-03-23T08:31:04;1.80;;;1.02;;
26989;SDS011;14537;47.788;11.858;2024-03-23T08:33:32;0.95;;;0.70;;
26989;SDS011;14537;47.788;11.858;2024-03-23T08:36:01;2.15;;;1.23;;
26989;SDS011;14537;47.788;11.858;2024-03-23T08:38:28;3.28;;;0.85;;
26989;SDS011;14537;47.788;11.858;2024-03-23T08:41:03;3.15;;;0.80;;
26989;SDS011;14537;47.788;11.858;2024-03-23T08:43:32;1.98;;;0.90;;
26989;SDS011;14537;47.788;11.858;2024-03-23T08:46:04;0.85;;;0.82;;
26989;SDS011;14537;47.788;11.858;2024-03-23T08:48:30;1.70;;;1.10;;
26989;SDS011;14537;47.788;11.858;2024-03-23T08:51:05;1.95;;;0.80;;
26989;SDS011;14537;47.788;11.858;2024-03-23T08:53:33;1.30;;;0.68;;
26989;SDS011;14537;47.788;11.858;2024-03-23T08:56:00;0.85;;;0.68;;
26989;SDS011;14537;47.788;11.858;2024-03-23T08:58:26;0.93;;;0.65;;
26989;SDS011;14537;47.788;11.858;2024-03-23T09:00:53;1.10;;;0.70;;
26989;SDS011;14537;47.788;11.858;2024-03-23T09:03:21;1.05;;;0.60;;
26989;SDS011;14537;47.788;11.858;2024-03-23T09:05:47;2.50;;;0.50;;
26989;SDS011;14537;47.788;11.858;2024-03-23T09:08:13;0.85;;;0.70;;
26989;SDS011;14537;47.788;11.858;2024-03-23T09:10:39;2.50;;;0.77;;
26989;SDS011;14537;47.788;11.858;2024-03-23T09:13:05;1.75;;;0.80;;
26989;SDS011;14537;47.788;11.858;2024-03-23T09:15:32;0.88;;;0.60;;
26989;SDS011;14537;47.788;11.858;2024-03-23T09:18:02;3.65;;;0.88;;
26989;SDS011;14537;47.788;11.858;2024-03-23T09:20:28;2.25;;;0.65;;
26989;SDS011;14537;47.788;11.858;2024-03-23T09:22:54;2.35;;;0.60;;
26989;SDS011;14537;47.788;11.858;2024-03-23T09:25:20;1.08;;;0.75;;
26989;SDS011;14537;47.788;11.858;2024-03-23T09:27:46;1.38;;;0.68;;
26989;SDS011;14537;47.788;11.858;2024-03-23T09:30:12;1.13;;;0.65;;
26989;SDS011;14537;47.788;11.858;2024-03-23T09:32:38;1.00;;;0.55;;
26989;SDS011;14537;47.788;11.858;2024-03-23T09:35:04;2.80;;;0.85;;
26989;SDS011;14537;47.788;11.858;2024-03-23T09:37:30;1.63;;;1.02;;
26989;SDS011;14537;47.788;11.858;2024-03-23T09:39:56;1.75;;;0.95;;
26989;SDS011;14537;47.788;11.858;2024-03-23T09:42:21;1.15;;;0.80;;
26989;SDS011;14537;47.788;11.858;2024-03-23T09:44:47;4.05;;;1.10;;
26989;SDS011;14537;47.788;11.858;2024-03-23T09:47:15;1.83;;;1.15;;
26989;SDS011;14537;47.788;11.858;2024-03-23T09:49:42;2.10;;;1.27;;
26989;SDS011;14537;47.788;11.858;2024-03-23T09:52:07;3.28;;;1.02;;
26989;SDS011;14537;47.788;11.858;2024-03-23T09:54:33;2.50;;;1.40;;
26989;SDS011;14537;47.788;11.858;2024-03-23T09:56:59;1.67;;;1.20;;
26989;SDS011;14537;47.788;11.858;2024-03-23T09:59:24;3.10;;;1.73;;
26989;SDS011;14537;47.788;11.858;2024-03-23T10:01:51;2.40;;;1.52;;
26989;SDS011;14537;47.788;11.858;2024-03-23T10:07:15;3.80;;;1.35;;
26989;SDS011;14537;47.788;11.858;2024-03-23T10:09:45;2.45;;;1.30;;
26989;SDS011;14537;47.788;11.858;2024-03-23T10:12:12;9.52;;;1.20;;
26989;SDS011;14537;47.788;11.858;2024-03-23T10:14:40;1.85;;;1.20;;
26989;SDS011;14537;47.788;11.858;2024-03-23T10:17:11;1.60;;;1.10;;
26989;SDS011;14537;47.788;11.858;2024-03-23T10:19:40;2.13;;;1.25;;
26989;SDS011;14537;47.788;11.858;2024-03-23T10:22:08;1.98;;;1.17;;
26989;SDS011;14537;47.788;11.858;2024-03-23T10:24:34;0.82;;;0.55;;
26989;SDS011;14537;47.788;11.858;2024-03-23T10:27:00;0.45;;;0.35;;
26989;SDS011;14537;47.788;11.858;2024-03-23T10:29:25;1.17;;;0.68;;
26989;SDS011;14537;47.788;11.858;2024-03-23T10:31:53;0.40;;;0.40;;
26989;SDS011;14537;47.788;11.858;2024-03-23T10:34:26;0.30;;;0.30;;
26989;SDS011;14537;47.788;11.858;2024-03-23T10:36:53;0.35;;;0.35;;
26989;SDS011;14537;47.788;11.858;2024-03-23T10:39:20;0.65;;;0.65;;
26989;SDS011;14537;47.788;11.858;2024-03-23T10:41:47;0.43;;;0.30;;
26989;SDS011;14537;47.788;11.858;2024-03-23T10:44:16;0.50;;;0.40;;
26989;SDS011;14537;47.788;11.858;2024-03-23T10:46:44;0.93;;;0.40;;
26989;SDS011;14537;47.788;11.858;2024-03-23T10:49:10;0.30;;;0.30;;
26989;SDS011;14537;47.788;11.858;2024-03-23T10:51:36;0.47;;;0.30;;
26989;SDS011;14537;47.788;11.858;2024-03-23T10:54:04;0.32;;;0.32;;
26989;SDS011;14537;47.788;11.858;2024-03-23T10:56:31;2.35;;;0.57;;
26989;SDS011;14537;47.788;11.858;2024-03-23T10:59:01;1.77;;;0.80;;
26989;SDS011;14537;47.788;11.858;2024-03-23T11:01:28;1.35;;;0.68;;
26989;SDS011;14537;47.788;11.858;2024-03-23T11:03:54;0.57;;;0.35;;
26989;SDS011;14537;47.788;11.858;2024-03-23T11:06:36;0.93;;;0.70;;
26989;SDS011;14537;47.788;11.858;2024-03-23T11:09:03;1.35;;;0.60;;
26989;SDS011;14537;47.788;11.858;2024-03-23T11:11:29;0.68;;;0.40;;
26989;SDS011;14537;47.788;11.858;2024-03-23T11:13:57;0.80;;;0.50;;
26989;SDS011;14537;47.788;11.858;2024-03-23T11:16:27;0.63;;;0.43;;
26989;SDS011;14537;47.788;11.858;2024-03-23T11:22:04;9.70;;;2.25;;
26989;SDS011;14537;47.788;11.858;2024-03-23T11:24:30;0.70;;;0.63;;
26989;SDS011;14537;47.788;11.858;2024-03-23T11:26:56;1.42;;;0.68;;
26989;SDS011;14537;47.788;11.858;2024-03-23T11:29:25;0.55;;;0.47;;
26989;SDS011;14537;47.788;11.858;2024-03-23T11:31:51;0.98;;;0.65;;
26989;SDS011;14537;47.788;11.858;2024-03-23T11:34:20;1.20;;;0.70;;
26989;SDS011;14537;47.788;11.858;2024-03-23T11:36:47;2.67;;;0.80;;
26989;SDS011;14537;47.788;11.858;2024-03-23T11:39:19;0.93;;;0.63;;
26989;SDS011;14537;47.788;11.858;2024-03-23T11:41:49;3.00;;;0.45;;
26989;SDS011;14537;47.788;11.858;2024-03-23T11:44:18;0.98;;;0.50;;
26989;SDS011;14537;47.788;11.858;2024-03-23T11:46:48;0.68;;;0.50;;
26989;SDS011;14537;47.788;11.858;2024-03-23T11:51:53;3.03;;;1.10;;
26989;SDS011;14537;47.788;11.858;2024-03-23T11:54:20;0.60;;;0.60;;
26989;SDS011;14537;47.788;11.858;2024-03-23T11:59:33;2.10;;;0.70;;
26989;SDS011;14537;47.788;11.858;2024-03-23T12:02:00;2.20;;;0.75;;
26989;SDS011;14537;47.788;11.858;2024-03-23T12:04:30;1.70;;;0.77;;
26989;SDS011;14537;47.788;11.858;2024-03-23T12:07:12;0.90;;;0.52;;
26989;SDS011;14537;47.788;11.858;2024-03-23T12:09:46;0.65;;;0.43;;
26989;SDS011;14537;47.788;11.858;2024-03-23T12:12:18;1.98;;;0.70;;
26989;SDS011;14537;47.788;11.858;2024-03-23T12:17:10;1.60;;;0.88;;
26989;SDS011;14537;47.788;11.858;2024-03-23T12:19:40;5.15;;;0.93;;
26989;SDS011;14537;47.788;11.858;2024-03-23T12:22:07;3.03;;;1.00;;
26989;SDS011;14537;47.788;11.858;2024-03-23T12:24:33;1.55;;;0.65;;
26989;SDS011;14537;47.788;11.858;2024-03-23T12:27:03;1.23;;;0.60;;
26989;SDS011;14537;47.788;11.858;2024-03-23T12:29:30;1.92;;;0.73;;
26989;SDS011;14537;47.788;11.858;2024-03-23T12:31:59;0.75;;;0.60;;
26989;SDS011;14537;47.788;11.858;2024-03-23T12:34:26;0.63;;;0.57;;
26989;SDS011;14537;47.788;11.858;2024-03-23T12:36:52;1.58;;;0.80;;
26989;SDS011;14537;47.788;11.858;2024-03-23T12:39:17;1.58;;;0.90;;
26989;SDS011;14537;47.788;11.858;2024-03-23T12:41:43;0.45;;;0.45;;
26989;SDS011;14537;47.788;11.858;2024-03-23T12:44:09;3.58;;;0.68;;
26989;SDS011;14537;47.788;11.858;2024-03-23T12:46:37;0.65;;;0.55;;
26989;SDS011;14537;47.788;11.858;2024-03-23T12:49:03;1.27;;;0.43;;
26989;SDS011;14537;47.788;11.858;2024-03-23T12:51:28;1.08;;;0.57;;
26989;SDS011;14537;47.788;11.858;2024-03-23T12:53:54;1.10;;;0.57;;
26989;SDS011;14537;47.788;11.858;2024-03-23T12:56:19;1.15;;;0.40;;
26989;SDS011;14537;47.788;11.858;2024-03-23T12:58:45;0.63;;;0.50;;
26989;SDS011;14537;47.788;11.858;2024-03-23T13:01:16;0.63;;;0.52;;
26989;SDS011;14537;47.788;11.858;2024-03-23T13:03:46;1.92;;;0.55;;
26989;SDS011;14537;47.788;11.858;2024-03-23T13:06:12;0.77;;;0.55;;
26989;SDS011;14537;47.788;11.858;2024-03-23T13:08:38;2.88;;;0.77;;
26989;SDS011;14537;47.788;11.858;2024-03-23T13:11:05;2.17;;;0.88;;
26989;SDS011;14537;47.788;11.858;2024-03-23T13:13:33;1.42;;;0.85;;
26989;SDS011;14537;47.788;11.858;2024-03-23T13:15:59;0.60;;;0.60;;
26989;SDS011;14537;47.788;11.858;2024-03-23T13:18:25;0.65;;;0.50;;
26989;SDS011;14537;47.788;11.858;2024-03-23T13:20:51;2.40;;;0.75;;
26989;SDS011;14537;47.788;11.858;2024-03-23T13:23:17;1.13;;;0.60;;
26989;SDS011;14537;47.788;11.858;2024-03-23T13:25:49;2.00;;;0.95;;
26989;SDS011;14537;47.788;11.858;2024-03-23T13:28:15;1.45;;;0.60;;
26989;SDS011;14537;47.788;11.858;2024-03-23T13:30:49;0.60;;;0.60;;
26989;SDS011;14537;47.788;11.858;2024-03-23T13:33:16;4.07;;;0.98;;
26989;SDS011;14537;47.788;11.858;2024-03-23T13:35:48;1.33;;;1.00;;
26989;SDS011;14537;47.788;11.858;2024-03-23T13:38:17;1.67;;;0.82;;
26989;SDS011;14537;47.788;11.858;2024-03-23T13:40:56;1.52;;;1.10;;
26989;SDS011;14537;47.788;11.858;2024-03-23T13:43:23;2.20;;;0.88;;
26989;SDS011;14537;47.788;11.858;2024-03-23T13:45:58;1.95;;;1.05;;
26989;SDS011;14537;47.788;11.858;2024-03-23T13:48:25;6.05;;;1.65;;
26989;SDS011;14537;47.788;11.858;2024-03-23T13:50:58;10.90;;;2.28;;
26989;SDS011;14537;47.788;11.858;2024-03-23T13:53:28;2.22;;;0.95;;
26989;SDS011;14537;47.788;11.858;2024-03-23T13:55:54;7.07;;;1.65;;
26989;SDS011;14537;47.788;11.858;2024-03-23T13:58:20;4.05;;;1.55;;
26989;SDS011;14537;47.788;11.858;2024-03-23T14:00:46;4.13;;;1.58;;
26989;SDS011;14537;47.788;11.858;2024-03-23T14:03:12;4.55;;;1.13;;
26989;SDS011;14537;47.788;11.858;2024-03-23T14:05:39;3.42;;;1.25;;
26989;SDS011;14537;47.788;11.858;2024-03-23T14:08:06;2.22;;;1.38;;
26989;SDS011;14537;47.788;11.858;2024-03-23T14:10:35;4.22;;;1.67;;
26989;SDS011;14537;47.788;11.858;2024-03-23T14:13:02;2.92;;;1.20;;
26989;SDS011;14537;47.788;11.858;2024-03-23T14:15:30;5.07;;;1.35;;
26989;SDS011;14537;47.788;11.858;2024-03-23T14:17:57;2.60;;;1.35;;
26989;SDS011;14537;47.788;11.858;2024-03-23T14:20:23;7.13;;;1.60;;
26989;SDS011;14537;47.788;11.858;2024-03-23T14:22:48;2.50;;;1.38;;
26989;SDS011;14537;47.788;11.858;2024-03-23T14:25:14;2.63;;;1.65;;
26989;SDS011;14537;47.788;11.858;2024-03-23T14:27:40;3.40;;;1.60;;
26989;SDS011;14537;47.788;11.858;2024-03-23T14:30:08;5.35;;;1.80;;
26989;SDS011;14537;47.788;11.858;2024-03-23T14:32:34;4.88;;;2.05;;
26989;SDS011;14537;47.788;11.858;2024-03-23T14:35:01;8.82;;;2.63;;
26989;SDS011;14537;47.788;11.858;2024-03-23T14:37:26;5.07;;;2.30;;
26989;SDS011;14537;47.788;11.858;2024-03-23T14:39:52;6.55;;;2.45;;
26989;SDS011;14537;47.788;11.858;2024-03-23T14:42:18;8.00;;;2.00;;
26989;SDS011;14537;47.788;11.858;2024-03-23T14:44:43;5.63;;;2.60;;
26989;SDS011;14537;47.788;11.858;2024-03-23T14:47:09;8.75;;;3.33;;
26989;SDS011;14537;47.788;11.858;2024-03-23T14:49:34;7.05;;;3.60;;
26989;SDS011;14537;47.788;11.858;2024-03-23T14:52:01;5.30;;;2.80;;
26989;SDS011;14537;47.788;11.858;2024-03-23T14:54:26;7.97;;;2.60;;
26989;SDS011;14537;47.788;11.858;2024-03-23T14:56:52;6.30;;;2.40;;
26989;SDS011;14537;47.788;11.858;2024-03-23T14:59:17;9.68;;;2.72;;
26989;SDS011;14537;47.788;11.858;2024-03-23T15:01:44;4.00;;;2.33;;
26989;SDS011;14537;47.788;11.858;2024-03-23T15:04:10;6.40;;;2.88;;
26989;SDS011;14537;47.788;11.858;2024-03-23T15:06:35;10.35;;;3.00;;
26989;SDS011;14537;47.788;11.858;2024-03-23T15:09:01;6.03;;;2.33;;
26989;SDS011;14537;47.788;11.858;2024-03-23T15:11:32;12.43;;;4.78;;
26989;SDS011;14537;47.788;11.858;2024-03-23T15:13:57;10.38;;;4.20;;
26989;SDS011;14537;47.788;11.858;2024-03-23T15:16:23;8.02;;;2.53;;
26989;SDS011;14537;47.788;11.858;2024-03-23T15:18:48;5.30;;;1.83;;
26989;SDS011;14537;47.788;11.858;2024-03-23T15:21:14;3.70;;;1.35;;
26989;SDS011;14537;47.788;11.858;2024-03-23T15:23:44;3.33;;;0.57;;
26989;SDS011;14537;47.788;11.858;2024-03-23T15:26:10;1.20;;;0.65;;
26989;SDS011;14537;47.788;11.858;2024-03-23T15:28:36;1.48;;;1.08;;
26989;SDS011;14537;47.788;11.858;2024-03-23T15:31:35;1.33;;;0.88;;
26989;SDS011;14537;47.788;11.858;2024-03-23T15:34:01;2.35;;;1.23;;
26989;SDS011;14537;47.788;11.858;2024-03-23T15:36:26;5.15;;;1.50;;
26989;SDS011;14537;47.788;11.858;2024-03-23T15:38:52;2.40;;;1.00;;